Latest Weather Observations for Trepell

IDQ60801

Issued at 5:35 am EST Sunday 26 October 2014 (issued every 30 minutes, with the page automatically refreshed every 10 minutes)

About weather observations | Map of weather stations | Latest weather observations for QLD | Other Formats
Station Details ID: 037036 Name: TREPELL AIRPORT Lat: -21.84 Lon: 140.89 Height: 266.2 m
Data from the previous 72 hours. | See also: Recent months at Trepell
Date/Time
EST
Temp
°C
App
Temp
°C
Dew
Point
Rel
Hum
%
Delta-T
°C
Wind Press
QNH
hPa
Press
MSL
hPa
Rain
since 9 am
mm
Dir
 
Spd
km/h
Gust
km/h
Spd
kts
Gust
kts
26/05:30am 25.3 21.3 2.7 23 11.1 N 13 17 7 9 1015.1 1013.5 0.0
26/05:00am 24.9 20.6 3.0 24 10.8 NNE 15 17 8 9 1014.9 1013.3 0.0
26/04:30am 25.9 20.8 3.2 23 11.3 N 19 20 10 11 1014.7 1013.1 0.0
26/04:00am 26.7 21.1 3.2 22 11.7 N 22 26 12 14 1014.6 1013.0 0.0
26/03:30am 26.7 21.8 3.9 23 11.5 N 19 22 10 12 1014.6 1013.0 0.0
26/03:00am 26.9 22.7 4.0 23 11.6 N 15 19 8 10 1014.7 1013.1 0.0
26/02:30am 25.6 21.3 3.5 24 11.0 N 15 17 8 9 1014.9 1013.3 0.0
26/02:00am 25.9 22.1 3.8 24 11.1 NNE 13 15 7 8 1015.0 1013.4 0.0
26/01:30am 25.3 21.3 2.7 23 11.1 NNE 13 15 7 8 1015.3 1013.8 0.0
26/01:00am 25.0 20.8 1.8 22 11.2 NNE 13 15 7 8 1015.6 1014.1 0.0
26/12:30am 26.2 22.9 2.2 21 11.8 NNE 9 11 5 6 1015.8 1014.3 0.0
26/12:00am 25.7 21.8 1.1 20 11.8 NE 11 13 6 7 1016.2 1014.6 0.0
 
Date/Time
EST
Temp
°C
App
Temp
°C
Dew
Point
Rel
Hum
%
Delta-T
°C
Wind Press
QNH
hPa
Press
MSL
hPa
Rain
since 9 am
mm
Dir
 
Spd
km/h
Gust
km/h
Spd
kts
Gust
kts
25/11:30pm 26.2 22.6 0.8 19 12.1 ENE 9 9 5 5 1016.6 1015.0 0.0
25/11:00pm 26.6 23.5 1.1 19 12.3 ENE 7 9 4 5 1016.8 1015.2 0.0
25/10:30pm 27.3 23.7 0.9 18 12.7 E 9 11 5 6 1016.9 1015.3 0.0
25/10:00pm 28.5 24.7 1.9 18 13.1 E 11 13 6 7 1016.7 1015.1 0.0
25/09:30pm 29.0 25.2 1.5 17 13.6 E 11 13 6 7 1016.5 1014.9 0.0
25/09:00pm 29.9 25.7 1.4 16 14.1 E 13 15 7 8 1016.3 1014.7 0.0
25/08:30pm 30.7 26.4 1.1 15 14.7 E 13 13 7 7 1016.0 1014.4 0.0
25/08:00pm 31.7 27.4 1.0 14 15.3 E 13 15 7 8 1015.6 1014.1 0.0
25/07:30pm 33.0 28.5 2.0 14 15.8 E 15 19 8 10 1015.3 1013.8 0.0
25/07:00pm 34.5 28.7 2.1 13 16.7 E 22 30 12 16 1015.0 1013.4 0.0
25/06:30pm 35.4 29.1 1.7 12 17.3 E 24 35 13 19 1014.5 1012.9 0.0
25/06:00pm 36.2 30.0 2.3 12 17.7 E 24 32 13 17 1014.3 1012.7 0.0
25/05:30pm 36.4 30.2 2.4 12 17.8 E 24 33 13 18 1014.1 1012.5 0.0
25/05:00pm 37.8 30.9 2.3 11 18.7 E 28 44 15 24 1013.7 1012.1 0.0
25/04:30pm 37.0 30.5 2.9 12 18.0 ENE 26 39 14 21 1014.1 1012.5 0.0
25/04:00pm 37.3 31.1 1.9 11 18.5 ESE 24 43 13 23 1014.2 1012.6 0.0
25/03:43pm 38.1 31.2 2.5 11 18.8 E 28 48 15 26 1014.3 1012.7 0.0
25/03:30pm 37.6 31.4 2.1 11 18.6 ENE 24 33 13 18 1014.4 1012.8 0.0
25/03:00pm 36.9 31.4 1.6 11 18.3 E 20 35 11 19 1014.8 1013.2 0.0
25/02:30pm 37.2 30.9 1.8 11 18.4 NE 24 35 13 19 1015.3 1013.8 0.0
25/02:00pm 35.8 30.3 0.8 11 17.8 E 19 33 10 18 1015.7 1014.2 0.0
25/01:30pm 36.3 29.4 2.4 12 17.7 ENE 28 39 15 21 1016.2 1014.6 0.0
25/01:00pm 35.6 29.3 1.8 12 17.4 NNE 24 33 13 18 1016.4 1014.8 0.0
25/12:30pm 34.2 28.7 0.8 12 16.8 NNE 19 32 10 17 1017.0 1015.4 0.0
25/12:00pm 34.0 28.5 0.6 12 16.7 NNE 19 33 10 18 1017.6 1016.0 0.0
25/11:30am 33.5 27.0 0.2 12 16.5 NE 24 30 13 16 1018.3 1016.7 0.0
25/11:00am 33.4 27.6 0.1 12 16.5 NNE 20 28 11 15 1018.8 1017.3 0.0
25/10:30am 32.6 26.4 -0.5 12 16.2 NNE 22 30 12 16 1019.3 1017.8 0.0
25/10:00am 32.6 26.4 -0.5 12 16.1 NNE 22 32 12 17 1019.4 1017.9 0.0
25/09:30am 31.5 24.4 -1.3 12 15.6 N 26 35 14 19 1019.6 1018.1 0.0
25/09:00am 30.6 22.6 -2.0 12 15.3 NNE 30 37 16 20 1019.5 1018.0 0.0
25/08:30am 29.8 22.7 -1.5 13 14.7 NNE 26 35 14 19 1019.5 1018.0 0.0
25/08:00am 28.9 22.7 -0.3 15 13.9 NNE 22 30 12 16 1019.3 1017.8 0.0
25/07:30am 27.6 21.9 0.4 17 13.0 N 20 28 11 15 1018.8 1017.3 0.0
25/07:00am 25.6 20.3 1.7 21 11.5 N 19 22 10 12 1018.5 1016.9 0.0
25/06:30am 23.7 19.2 2.0 24 10.4 NNE 15 19 8 10 1018.2 1016.6 0.0
25/06:00am 22.9 18.3 1.3 24 10.1 NNE 15 17 8 9 1017.8 1016.2 0.0
25/05:30am 24.1 18.9 2.3 24 10.5 N 19 22 10 12 1017.5 1015.9 0.0
25/05:00am 22.0 17.8 1.6 26 9.6 NNE 13 15 7 8 1017.1 1015.5 0.0
25/04:30am 22.0 17.7 1.1 25 9.7 NNE 13 15 7 8 1016.9 1015.3 0.0
25/04:00am 22.6 18.4 1.6 25 9.9 NNE 13 15 7 8 1016.6 1015.0 0.0
25/03:30am 22.6 18.0 1.6 25 9.9 NNE 15 17 8 9 1016.5 1014.9 0.0
25/03:00am 23.1 19.0 2.0 25 10.1 NNE 13 19 7 10 1016.3 1014.7 0.0
25/02:30am 23.1 18.9 1.4 24 10.2 NNE 13 17 7 9 1016.1 1014.5 0.0
25/02:00am 23.4 19.4 0.5 22 10.6 NNE 11 13 6 7 1016.2 1014.6 0.0
25/01:30am 23.9 20.3 0.9 22 10.8 NE 9 11 5 6 1016.4 1014.8 0.0
25/01:00am 24.0 20.8 1.0 22 10.8 NE 7 9 4 5 1016.8 1015.2 0.0
25/12:30am 24.0 20.4 0.4 21 11.0 NE 9 11 5 6 1016.9 1015.3 0.0
25/12:00am 24.6 20.6 0.2 20 11.4 ENE 11 13 6 7 1017.0 1015.4 0.0
 
Date/Time
EST
Temp
°C
App
Temp
°C
Dew
Point
Rel
Hum
%
Delta-T
°C
Wind Press
QNH
hPa
Press
MSL
hPa
Rain
since 9 am
mm
Dir
 
Spd
km/h
Gust
km/h
Spd
kts
Gust
kts
24/11:30pm 25.3 21.6 0.0 19 11.8 NE 9 11 5 6 1017.3 1015.7 0.0
24/11:00pm 25.2 21.9 0.0 19 11.7 E 7 9 4 5 1017.4 1015.8 0.0
24/10:30pm 26.7 22.7 0.4 18 12.5 E 11 11 6 6 1017.3 1015.7 0.0
24/10:00pm 27.0 22.8 -0.9 16 13.0 E 11 15 6 8 1017.2 1015.6 0.0
24/09:30pm 27.6 23.1 -0.5 16 13.2 E 13 13 7 7 1016.8 1015.2 0.0
24/09:00pm 28.6 24.1 -0.5 15 13.8 E 13 17 7 9 1016.5 1014.9 0.0
24/08:30pm 28.9 24.3 -1.2 14 14.1 E 13 13 7 7 1016.3 1014.7 0.0
24/08:00pm 30.2 25.7 -0.2 14 14.7 E 13 15 7 8 1016.0 1014.4 0.0
24/07:30pm 31.6 26.8 -0.1 13 15.5 E 15 19 8 10 1015.6 1014.1 0.0
24/07:00pm 33.1 27.5 1.0 13 16.1 E 20 24 11 13 1015.2 1013.6 0.0
24/06:30pm 34.1 27.7 0.7 12 16.8 E 24 30 13 16 1014.7 1013.1 0.0
24/06:00pm 35.0 29.4 0.2 11 17.4 E 19 28 10 15 1014.5 1012.9 0.0
24/05:30pm 35.3 29.6 0.4 11 17.6 E 20 30 11 16 1014.3 1012.7 0.0
24/05:00pm 36.2 28.7 1.1 11 18.0 E 30 46 16 25 1014.2 1012.6 0.0
24/04:57pm 36.2 29.1 1.1 11 18.0 E 28 46 15 25 1014.1 1012.5 0.0
24/04:30pm 36.2 28.1 1.1 11 18.0 E 33 46 18 25 1014.2 1012.6 0.0
24/04:25pm 36.5 29.4 1.3 11 18.1 E 28 46 15 25 1014.1 1012.5 0.0
24/04:00pm 36.6 29.9 1.4 11 18.2 E 26 35 14 19 1014.5 1012.9 0.0
24/03:30pm 36.4 31.0 1.2 11 18.1 ESE 19 32 10 17 1014.7 1013.1 0.0
24/03:00pm 36.0 30.5 0.9 11 17.9 ESE 19 30 10 16 1014.9 1013.3 0.0
24/02:30pm 36.0 29.8 2.1 12 17.6 ESE 24 33 13 18 1015.3 1013.8 0.0
24/02:00pm 35.9 28.5 2.1 12 17.5 E 30 41 16 22 1015.8 1014.3 0.0
24/01:30pm 35.3 29.2 2.7 13 17.0 NE 24 32 13 17 1016.4 1014.8 0.0
24/01:00pm 34.8 29.0 2.3 13 16.8 NE 22 33 12 18 1016.9 1015.3 0.0
24/12:30pm 34.5 28.3 2.1 13 16.7 NNE 24 32 13 17 1017.4 1015.8 0.0
24/12:00pm 35.0 29.2 2.5 13 16.9 NE 22 35 12 19 1017.7 1016.1 0.0
24/11:30am 33.5 26.4 1.3 13 16.3 NE 28 43 15 23 1018.2 1016.6 0.0
24/11:00am 33.1 26.2 -0.1 12 16.3 NE 26 37 14 20 1018.3 1016.7 0.0
24/10:30am 32.6 26.5 0.6 13 15.9 NNE 22 30 12 16 1018.9 1017.4 0.0
24/10:00am 31.6 26.0 0.9 14 15.2 NNE 20 32 11 17 1019.0 1017.5 0.0
24/09:30am 31.0 24.9 0.4 14 15.0 N 22 30 12 16 1019.2 1017.7 0.0
24/09:00am 29.9 23.1 0.5 15 14.3 NNE 26 32 14 17 1019.2 1017.7 0.0
24/08:30am 28.5 21.6 0.3 16 13.6 NNE 26 33 14 18 1019.2 1017.7 0.0
24/08:00am 27.1 20.6 0.0 17 12.8 NNE 24 33 13 18 1018.9 1017.4 0.0
24/07:30am 26.1 20.4 0.7 19 12.1 NNE 20 26 11 14 1018.7 1017.2 0.0
24/07:00am 25.0 20.7 1.2 21 11.3 NNE 13 15 7 8 1018.3 1016.7 0.0
24/06:30am 23.6 18.9 0.7 22 10.7 NNE 15 19 8 10 1018.1 1016.5 0.0
24/06:00am 22.7 18.0 1.1 24 10.1 N 15 17 8 9 1017.6 1016.0 0.0
24/05:30am 22.5 17.9 1.5 25 9.9 NNE 15 17 8 9 1017.2 1015.6 0.0
24/05:00am 22.7 18.0 1.1 24 10.1 NNE 15 17 8 9 1016.9 1015.3 0.0
24/04:30am 23.0 18.5 1.9 25 10.0 NNE 15 17 8 9 1016.6 1015.0 0.0
24/04:00am 23.0 18.5 1.9 25 10.0 NNE 15 17 8 9 1016.3 1014.7 0.0
24/03:30am 23.3 18.4 2.2 25 10.1 NNE 17 17 9 9 1016.2 1014.6 0.0
24/03:00am 23.3 18.9 2.7 26 10.0 NNE 15 17 8 9 1016.1 1014.5 0.0
24/02:30am 22.3 18.3 2.9 28 9.4 NNE 13 13 7 7 1016.1 1014.5 0.0
24/02:00am 23.0 19.0 3.0 27 9.7 NNE 13 13 7 7 1016.4 1014.8 0.0
24/01:30am 23.2 19.3 3.2 27 9.8 NE 13 15 7 8 1016.6 1015.0 0.0
24/01:00am 24.1 20.6 3.4 26 10.2 NNE 11 13 6 7 1016.8 1015.2 0.0
24/12:30am 23.9 19.9 2.7 25 10.3 NE 13 13 7 7 1016.9 1015.3 0.0
24/12:00am 24.9 20.9 3.0 24 10.8 ENE 13 15 7 8 1017.1 1015.5 0.0
 
Date/Time
EST
Temp
°C
App
Temp
°C
Dew
Point
Rel
Hum
%
Delta-T
°C
Wind Press
QNH
hPa
Press
MSL
hPa
Rain
since 9 am
mm
Dir
 
Spd
km/h
Gust
km/h
Spd
kts
Gust
kts
23/11:30pm 25.7 21.7 3.0 23 11.2 ENE 13 15 7 8 1017.2 1015.6 0.0
23/11:00pm 24.3 19.9 0.6 21 11.1 NE 13 15 7 8 1017.2 1015.6 0.0
23/10:30pm 25.3 21.6 0.0 19 11.8 ENE 9 11 5 6 1017.2 1015.6 0.0
23/10:00pm 26.3 23.4 1.6 20 12.0 ENE 6 7 3 4 1017.2 1015.6 0.0
23/09:30pm 27.6 24.2 1.9 19 12.6 E 9 11 5 6 1016.8 1015.2 0.0
23/09:00pm 27.9 23.9 0.6 17 13.1 E 11 11 6 6 1016.4 1014.8 0.0
23/08:30pm 28.5 24.6 1.1 17 13.4 E 11 11 6 6 1016.0 1014.4 0.0
23/08:00pm 29.7 25.4 1.2 16 14.0 E 13 13 7 7 1015.7 1014.2 0.0
23/07:30pm 31.1 26.9 1.4 15 14.8 E 13 17 7 9 1015.4 1013.9 0.0
23/07:00pm 32.1 27.1 1.3 14 15.4 E 17 20 9 11 1015.0 1013.4 0.0
23/06:30pm 33.2 27.7 2.1 14 15.9 E 20 26 11 14 1014.5 1012.9 0.0
23/06:00pm 33.8 28.8 1.6 13 16.4 E 17 26 9 14 1014.2 1012.6 0.0
23/05:30pm 34.1 29.2 1.8 13 16.5 ENE 17 22 9 12 1014.0 1012.4 0.0
23/05:00pm 34.7 30.2 2.3 13 16.8 ENE 15 24 8 13 1013.9 1012.3 0.0
23/04:30pm 35.4 29.7 2.8 13 17.1 E 22 28 12 15 1013.9 1012.3 0.0
23/04:00pm 35.0 30.9 2.5 13 16.9 E 13 20 7 11 1014.0 1012.4 0.0
23/03:30pm 35.9 31.0 2.1 12 17.6 ESE 17 24 9 13 1014.2 1012.6 0.0
23/03:00pm 36.1 31.8 3.3 13 17.4 ESE 15 35 8 19 1014.3 1012.7 0.0
23/02:30pm 34.2 29.1 2.9 14 16.3 NNE 19 24 10 13 1014.7 1013.1 0.0
23/02:00pm 35.7 30.4 3.0 13 17.2 E 20 30 11 16 1015.1 1013.5 0.0
23/01:30pm 35.1 29.5 3.6 14 16.7 NE 22 35 12 19 1015.5 1014.0 0.0
23/01:00pm 33.9 27.8 2.7 14 16.2 ENE 24 35 13 19 1016.2 1014.6 0.0
23/12:30pm 33.4 27.6 2.3 14 16.0 E 22 33 12 18 1016.9 1015.3 0.0
23/12:00pm 34.0 28.7 2.8 14 16.2 E 20 44 11 24 1017.3 1015.7 0.0
23/11:30am 32.8 28.0 2.8 15 15.5 NNE 17 32 9 17 1017.8 1016.2 0.0
23/11:00am 33.0 27.9 3.9 16 15.3 NNE 20 33 11 18 1018.1 1016.5 0.0
23/10:30am 32.5 27.3 3.5 16 15.1 NNE 20 30 11 16 1018.3 1016.7 0.0
23/10:00am 31.5 25.5 3.5 17 14.5 NNE 24 32 13 17 1018.5 1016.9 0.0
23/09:30am 30.7 25.3 4.4 19 13.8 NNE 22 32 12 17 1018.7 1017.2 0.0
23/09:00am 29.8 25.0 5.8 22 12.8 NNE 20 28 11 15 1018.9 1017.4 0.0
23/08:30am 28.3 23.6 5.2 23 12.1 NNE 19 24 10 13 1018.8 1017.3 0.0
23/08:00am 26.8 21.4 2.7 21 11.9 NNE 20 26 11 14 1018.7 1017.2 0.0
23/07:30am 25.8 20.5 1.8 21 11.6 NNE 19 22 10 12 1018.6 1017.1 0.0
23/07:00am 24.4 20.6 1.9 23 10.8 NNE 11 15 6 8 1018.6 1017.1 0.0
23/06:30am 21.4 16.7 1.1 26 9.4 N 15 17 8 9 1018.3 1016.7 0.0
23/06:00am 20.6 16.3 1.0 27 9.0 N 13 15 7 8 1017.9 1016.3 0.0

Other Formats:

Comma delimited format used in spreadsheet applications
http://www.bom.gov.au/fwo/IDQ60801/IDQ60801.94338.axf

JavaScript Object Notation format (JSON) in row-major order
http://www.bom.gov.au/fwo/IDQ60801/IDQ60801.94338.json